sensor_id;sensor_type;location;lat;lon;timestamp;P1;durP1;ratioP1;P2;durP2;ratioP2
21671;SDS011;10997;52.242;8.168;2023-04-06T00:03:32;10.60;;;7.57;;
21671;SDS011;10997;52.242;8.168;2023-04-06T00:08:33;11.80;;;7.70;;
21671;SDS011;10997;52.242;8.168;2023-04-06T00:13:34;13.25;;;7.57;;
21671;SDS011;10997;52.242;8.168;2023-04-06T00:18:35;9.10;;;7.10;;
21671;SDS011;10997;52.242;8.168;2023-04-06T00:23:35;11.65;;;7.30;;
21671;SDS011;10997;52.242;8.168;2023-04-06T00:28:39;9.38;;;7.38;;
21671;SDS011;10997;52.242;8.168;2023-04-06T00:33:40;8.70;;;6.70;;
21671;SDS011;10997;52.242;8.168;2023-04-06T00:38:40;9.98;;;7.20;;
21671;SDS011;10997;52.242;8.168;2023-04-06T00:43:41;10.10;;;7.05;;
21671;SDS011;10997;52.242;8.168;2023-04-06T00:48:41;12.55;;;7.03;;
21671;SDS011;10997;52.242;8.168;2023-04-06T00:53:42;10.90;;;7.20;;
21671;SDS011;10997;52.242;8.168;2023-04-06T00:58:43;11.80;;;6.90;;
21671;SDS011;10997;52.242;8.168;2023-04-06T01:03:43;11.07;;;6.80;;
21671;SDS011;10997;52.242;8.168;2023-04-06T01:08:47;10.23;;;6.82;;
21671;SDS011;10997;52.242;8.168;2023-04-06T01:13:48;13.80;;;7.60;;
21671;SDS011;10997;52.242;8.168;2023-04-06T01:18:48;14.57;;;7.70;;
21671;SDS011;10997;52.242;8.168;2023-04-06T01:23:50;12.90;;;7.90;;
21671;SDS011;10997;52.242;8.168;2023-04-06T01:28:51;11.38;;;8.38;;
21671;SDS011;10997;52.242;8.168;2023-04-06T01:33:52;14.63;;;8.23;;
21671;SDS011;10997;52.242;8.168;2023-04-06T01:38:53;10.80;;;7.90;;
21671;SDS011;10997;52.242;8.168;2023-04-06T01:43:53;12.93;;;8.90;;
21671;SDS011;10997;52.242;8.168;2023-04-06T01:48:54;13.05;;;8.90;;
21671;SDS011;10997;52.242;8.168;2023-04-06T01:53:55;15.93;;;9.80;;
21671;SDS011;10997;52.242;8.168;2023-04-06T01:58:55;12.90;;;9.43;;
21671;SDS011;10997;52.242;8.168;2023-04-06T02:03:56;13.18;;;9.43;;
21671;SDS011;10997;52.242;8.168;2023-04-06T02:08:56;15.32;;;8.95;;
21671;SDS011;10997;52.242;8.168;2023-04-06T02:13:57;14.23;;;9.05;;
21671;SDS011;10997;52.242;8.168;2023-04-06T02:19:00;12.77;;;8.95;;
21671;SDS011;10997;52.242;8.168;2023-04-06T02:24:00;14.43;;;9.02;;
21671;SDS011;10997;52.242;8.168;2023-04-06T02:29:01;17.30;;;9.65;;
21671;SDS011;10997;52.242;8.168;2023-04-06T02:34:02;14.90;;;9.63;;
21671;SDS011;10997;52.242;8.168;2023-04-06T02:39:02;14.68;;;9.93;;
21671;SDS011;10997;52.242;8.168;2023-04-06T02:44:03;14.02;;;10.27;;
21671;SDS011;10997;52.242;8.168;2023-04-06T02:49:04;22.35;;;12.38;;
21671;SDS011;10997;52.242;8.168;2023-04-06T02:54:05;28.02;;;14.32;;
21671;SDS011;10997;52.242;8.168;2023-04-06T02:59:06;17.73;;;11.95;;
21671;SDS011;10997;52.242;8.168;2023-04-06T03:04:06;19.35;;;11.57;;
21671;SDS011;10997;52.242;8.168;2023-04-06T03:09:07;18.58;;;10.95;;
21671;SDS011;10997;52.242;8.168;2023-04-06T03:14:07;16.63;;;10.07;;
21671;SDS011;10997;52.242;8.168;2023-04-06T03:19:08;18.58;;;10.55;;
21671;SDS011;10997;52.242;8.168;2023-04-06T03:24:09;13.30;;;9.23;;
21671;SDS011;10997;52.242;8.168;2023-04-06T03:29:09;13.98;;;10.13;;
21671;SDS011;10997;52.242;8.168;2023-04-06T03:34:10;13.75;;;9.90;;
21671;SDS011;10997;52.242;8.168;2023-04-06T03:39:10;16.67;;;9.95;;
21671;SDS011;10997;52.242;8.168;2023-04-06T03:44:11;16.90;;;11.05;;
21671;SDS011;10997;52.242;8.168;2023-04-06T03:49:12;15.05;;;10.18;;
21671;SDS011;10997;52.242;8.168;2023-04-06T03:54:12;15.55;;;10.23;;
21671;SDS011;10997;52.242;8.168;2023-04-06T03:59:13;14.75;;;10.82;;
21671;SDS011;10997;52.242;8.168;2023-04-06T04:04:13;17.08;;;10.93;;
21671;SDS011;10997;52.242;8.168;2023-04-06T04:09:14;16.02;;;11.02;;
21671;SDS011;10997;52.242;8.168;2023-04-06T04:14:15;17.13;;;11.95;;
21671;SDS011;10997;52.242;8.168;2023-04-06T04:19:15;16.42;;;11.63;;
21671;SDS011;10997;52.242;8.168;2023-04-06T04:24:16;16.20;;;11.55;;
21671;SDS011;10997;52.242;8.168;2023-04-06T04:29:16;18.77;;;11.07;;
21671;SDS011;10997;52.242;8.168;2023-04-06T04:34:21;17.75;;;11.70;;
21671;SDS011;10997;52.242;8.168;2023-04-06T04:39:23;16.73;;;11.40;;
21671;SDS011;10997;52.242;8.168;2023-04-06T04:44:24;19.55;;;12.07;;
21671;SDS011;10997;52.242;8.168;2023-04-06T04:49:25;18.13;;;11.57;;
21671;SDS011;10997;52.242;8.168;2023-04-06T04:54:25;16.90;;;11.43;;
21671;SDS011;10997;52.242;8.168;2023-04-06T04:59:26;15.68;;;10.73;;
21671;SDS011;10997;52.242;8.168;2023-04-06T05:04:26;15.73;;;11.35;;
21671;SDS011;10997;52.242;8.168;2023-04-06T05:09:28;21.10;;;12.10;;
21671;SDS011;10997;52.242;8.168;2023-04-06T05:14:30;18.00;;;12.07;;
21671;SDS011;10997;52.242;8.168;2023-04-06T05:19:31;16.25;;;11.93;;
21671;SDS011;10997;52.242;8.168;2023-04-06T05:24:31;17.98;;;11.93;;
21671;SDS011;10997;52.242;8.168;2023-04-06T05:29:32;17.90;;;12.05;;
21671;SDS011;10997;52.242;8.168;2023-04-06T05:34:33;18.23;;;12.45;;
21671;SDS011;10997;52.242;8.168;2023-04-06T05:39:34;19.67;;;12.93;;
21671;SDS011;10997;52.242;8.168;2023-04-06T05:44:36;17.70;;;12.73;;
21671;SDS011;10997;52.242;8.168;2023-04-06T05:49:37;17.83;;;12.15;;
21671;SDS011;10997;52.242;8.168;2023-04-06T05:54:38;18.52;;;12.32;;
21671;SDS011;10997;52.242;8.168;2023-04-06T05:59:38;16.38;;;12.75;;
21671;SDS011;10997;52.242;8.168;2023-04-06T06:04:39;19.95;;;13.13;;
21671;SDS011;10997;52.242;8.168;2023-04-06T06:09:39;32.30;;;15.50;;
21671;SDS011;10997;52.242;8.168;2023-04-06T06:14:40;18.77;;;13.02;;
21671;SDS011;10997;52.242;8.168;2023-04-06T06:19:41;19.75;;;13.32;;
21671;SDS011;10997;52.242;8.168;2023-04-06T06:24:41;17.98;;;12.90;;
21671;SDS011;10997;52.242;8.168;2023-04-06T06:29:42;18.65;;;13.45;;
21671;SDS011;10997;52.242;8.168;2023-04-06T06:34:43;18.10;;;12.18;;
21671;SDS011;10997;52.242;8.168;2023-04-06T06:39:43;22.95;;;12.18;;
21671;SDS011;10997;52.242;8.168;2023-04-06T06:44:44;19.63;;;12.52;;
21671;SDS011;10997;52.242;8.168;2023-04-06T06:49:44;16.80;;;11.50;;
21671;SDS011;10997;52.242;8.168;2023-04-06T06:54:45;16.75;;;12.00;;
21671;SDS011;10997;52.242;8.168;2023-04-06T06:59:46;15.43;;;11.20;;
21671;SDS011;10997;52.242;8.168;2023-04-06T07:04:49;17.25;;;11.40;;
21671;SDS011;10997;52.242;8.168;2023-04-06T07:09:50;16.25;;;11.55;;
21671;SDS011;10997;52.242;8.168;2023-04-06T07:14:50;16.77;;;11.60;;
21671;SDS011;10997;52.242;8.168;2023-04-06T07:19:51;18.05;;;10.98;;
21671;SDS011;10997;52.242;8.168;2023-04-06T07:24:51;15.93;;;10.85;;
21671;SDS011;10997;52.242;8.168;2023-04-06T07:29:52;15.43;;;10.63;;
21671;SDS011;10997;52.242;8.168;2023-04-06T07:34:53;16.38;;;11.07;;
21671;SDS011;10997;52.242;8.168;2023-04-06T07:39:53;18.05;;;11.02;;
21671;SDS011;10997;52.242;8.168;2023-04-06T07:44:54;14.35;;;10.20;;
21671;SDS011;10997;52.242;8.168;2023-04-06T07:49:55;13.75;;;9.70;;
21671;SDS011;10997;52.242;8.168;2023-04-06T07:54:58;18.23;;;10.38;;
21671;SDS011;10997;52.242;8.168;2023-04-06T07:59:59;12.90;;;8.93;;
21671;SDS011;10997;52.242;8.168;2023-04-06T08:05:00;13.85;;;9.02;;
21671;SDS011;10997;52.242;8.168;2023-04-06T08:10:01;13.18;;;8.63;;
21671;SDS011;10997;52.242;8.168;2023-04-06T08:15:02;10.52;;;8.05;;
21671;SDS011;10997;52.242;8.168;2023-04-06T08:20:03;10.48;;;7.93;;
21671;SDS011;10997;52.242;8.168;2023-04-06T08:25:04;9.73;;;7.88;;
21671;SDS011;10997;52.242;8.168;2023-04-06T08:30:05;13.57;;;10.38;;
21671;SDS011;10997;52.242;8.168;2023-04-06T08:35:06;12.88;;;8.55;;
21671;SDS011;10997;52.242;8.168;2023-04-06T08:40:07;13.05;;;8.82;;
21671;SDS011;10997;52.242;8.168;2023-04-06T08:45:09;12.52;;;8.70;;
21671;SDS011;10997;52.242;8.168;2023-04-06T08:50:09;13.05;;;8.73;;
21671;SDS011;10997;52.242;8.168;2023-04-06T08:55:11;13.00;;;8.48;;
21671;SDS011;10997;52.242;8.168;2023-04-06T09:00:12;13.45;;;8.82;;
21671;SDS011;10997;52.242;8.168;2023-04-06T09:05:13;15.57;;;8.68;;
21671;SDS011;10997;52.242;8.168;2023-04-06T09:10:15;13.73;;;9.23;;
21671;SDS011;10997;52.242;8.168;2023-04-06T09:15:17;16.17;;;9.38;;
21671;SDS011;10997;52.242;8.168;2023-04-06T09:20:23;13.63;;;9.98;;
21671;SDS011;10997;52.242;8.168;2023-04-06T09:25:28;16.40;;;10.70;;
21671;SDS011;10997;52.242;8.168;2023-04-06T09:30:30;14.77;;;10.20;;
21671;SDS011;10997;52.242;8.168;2023-04-06T09:35:30;14.98;;;9.90;;
21671;SDS011;10997;52.242;8.168;2023-04-06T09:40:32;13.10;;;9.60;;
21671;SDS011;10997;52.242;8.168;2023-04-06T09:45:33;15.18;;;10.38;;
21671;SDS011;10997;52.242;8.168;2023-04-06T09:50:34;17.05;;;9.98;;
21671;SDS011;10997;52.242;8.168;2023-04-06T09:55:36;16.90;;;11.75;;
21671;SDS011;10997;52.242;8.168;2023-04-06T10:01:01;19.58;;;10.63;;
21671;SDS011;10997;52.242;8.168;2023-04-06T10:06:05;17.00;;;11.52;;
21671;SDS011;10997;52.242;8.168;2023-04-06T10:11:10;15.05;;;9.90;;
21671;SDS011;10997;52.242;8.168;2023-04-06T10:16:11;15.70;;;10.90;;
21671;SDS011;10997;52.242;8.168;2023-04-06T10:21:15;15.15;;;10.63;;
21671;SDS011;10997;52.242;8.168;2023-04-06T10:26:20;15.07;;;10.38;;
21671;SDS011;10997;52.242;8.168;2023-04-06T10:31:25;14.93;;;10.75;;
21671;SDS011;10997;52.242;8.168;2023-04-06T10:36:28;16.20;;;10.85;;
21671;SDS011;10997;52.242;8.168;2023-04-06T10:41:40;15.45;;;10.27;;
21671;SDS011;10997;52.242;8.168;2023-04-06T10:46:42;17.30;;;11.57;;
21671;SDS011;10997;52.242;8.168;2023-04-06T10:51:56;16.83;;;11.25;;
21671;SDS011;10997;52.242;8.168;2023-04-06T10:56:57;17.48;;;12.10;;
21671;SDS011;10997;52.242;8.168;2023-04-06T11:01:58;16.25;;;11.20;;
21671;SDS011;10997;52.242;8.168;2023-04-06T11:06:58;17.20;;;12.23;;
21671;SDS011;10997;52.242;8.168;2023-04-06T11:11:59;16.85;;;13.35;;
21671;SDS011;10997;52.242;8.168;2023-04-06T11:17:00;21.60;;;12.40;;
21671;SDS011;10997;52.242;8.168;2023-04-06T11:22:06;17.58;;;12.77;;
21671;SDS011;10997;52.242;8.168;2023-04-06T11:27:07;21.42;;;13.38;;
21671;SDS011;10997;52.242;8.168;2023-04-06T11:32:08;17.25;;;12.10;;
21671;SDS011;10997;52.242;8.168;2023-04-06T11:37:10;17.92;;;12.50;;
21671;SDS011;10997;52.242;8.168;2023-04-06T11:42:12;18.45;;;12.40;;
21671;SDS011;10997;52.242;8.168;2023-04-06T11:47:12;20.20;;;12.52;;
21671;SDS011;10997;52.242;8.168;2023-04-06T11:52:14;16.10;;;11.60;;
21671;SDS011;10997;52.242;8.168;2023-04-06T11:57:20;18.42;;;12.18;;
21671;SDS011;10997;52.242;8.168;2023-04-06T12:02:24;18.25;;;12.90;;
21671;SDS011;10997;52.242;8.168;2023-04-06T12:07:25;16.80;;;11.40;;
21671;SDS011;10997;52.242;8.168;2023-04-06T12:12:25;16.42;;;11.57;;
21671;SDS011;10997;52.242;8.168;2023-04-06T12:17:26;14.70;;;11.40;;
21671;SDS011;10997;52.242;8.168;2023-04-06T12:22:26;18.02;;;11.88;;
21671;SDS011;10997;52.242;8.168;2023-04-06T12:27:27;14.45;;;10.88;;
21671;SDS011;10997;52.242;8.168;2023-04-06T12:32:28;15.38;;;10.77;;
21671;SDS011;10997;52.242;8.168;2023-04-06T12:37:28;15.57;;;11.18;;
21671;SDS011;10997;52.242;8.168;2023-04-06T12:42:29;15.38;;;10.77;;
21671;SDS011;10997;52.242;8.168;2023-04-06T12:47:30;18.88;;;11.23;;
21671;SDS011;10997;52.242;8.168;2023-04-06T12:52:31;18.23;;;12.60;;
21671;SDS011;10997;52.242;8.168;2023-04-06T12:57:34;17.60;;;11.85;;
21671;SDS011;10997;52.242;8.168;2023-04-06T13:02:37;16.67;;;11.13;;
21671;SDS011;10997;52.242;8.168;2023-04-06T13:07:37;18.30;;;12.10;;
21671;SDS011;10997;52.242;8.168;2023-04-06T13:12:38;15.30;;;11.10;;
21671;SDS011;10997;52.242;8.168;2023-04-06T13:17:38;21.30;;;10.80;;
21671;SDS011;10997;52.242;8.168;2023-04-06T13:22:39;18.02;;;11.82;;
21671;SDS011;10997;52.242;8.168;2023-04-06T13:27:40;17.65;;;12.80;;
21671;SDS011;10997;52.242;8.168;2023-04-06T13:32:40;16.98;;;12.63;;
21671;SDS011;10997;52.242;8.168;2023-04-06T13:37:41;18.30;;;12.73;;
21671;SDS011;10997;52.242;8.168;2023-04-06T13:42:42;19.50;;;11.68;;
21671;SDS011;10997;52.242;8.168;2023-04-06T13:47:45;18.67;;;12.65;;
21671;SDS011;10997;52.242;8.168;2023-04-06T13:52:46;20.67;;;12.68;;
21671;SDS011;10997;52.242;8.168;2023-04-06T13:57:50;20.48;;;12.93;;
21671;SDS011;10997;52.242;8.168;2023-04-06T14:02:53;19.73;;;12.88;;
21671;SDS011;10997;52.242;8.168;2023-04-06T14:07:55;22.77;;;13.43;;
21671;SDS011;10997;52.242;8.168;2023-04-06T14:12:55;19.33;;;13.40;;
21671;SDS011;10997;52.242;8.168;2023-04-06T14:17:58;19.65;;;14.07;;
21671;SDS011;10997;52.242;8.168;2023-04-06T14:23:01;20.00;;;13.48;;
21671;SDS011;10997;52.242;8.168;2023-04-06T14:28:02;18.77;;;13.93;;
21671;SDS011;10997;52.242;8.168;2023-04-06T14:33:03;20.73;;;13.52;;
21671;SDS011;10997;52.242;8.168;2023-04-06T14:38:04;19.02;;;13.23;;
21671;SDS011;10997;52.242;8.168;2023-04-06T14:43:05;18.70;;;13.10;;
21671;SDS011;10997;52.242;8.168;2023-04-06T14:48:05;16.33;;;11.23;;
21671;SDS011;10997;52.242;8.168;2023-04-06T14:53:06;18.73;;;11.20;;
21671;SDS011;10997;52.242;8.168;2023-04-06T14:58:07;16.15;;;11.85;;
21671;SDS011;10997;52.242;8.168;2023-04-06T15:03:07;20.73;;;13.00;;
21671;SDS011;10997;52.242;8.168;2023-04-06T15:08:08;19.45;;;12.43;;
21671;SDS011;10997;52.242;8.168;2023-04-06T15:13:13;19.30;;;13.70;;
21671;SDS011;10997;52.242;8.168;2023-04-06T15:18:23;20.63;;;14.13;;
21671;SDS011;10997;52.242;8.168;2023-04-06T15:23:23;21.38;;;14.55;;
21671;SDS011;10997;52.242;8.168;2023-04-06T15:28:25;19.42;;;13.38;;
21671;SDS011;10997;52.242;8.168;2023-04-06T15:33:26;22.38;;;14.43;;
21671;SDS011;10997;52.242;8.168;2023-04-06T15:38:26;20.52;;;13.77;;
21671;SDS011;10997;52.242;8.168;2023-04-06T15:43:28;21.13;;;14.32;;
21671;SDS011;10997;52.242;8.168;2023-04-06T15:48:29;23.50;;;14.60;;
21671;SDS011;10997;52.242;8.168;2023-04-06T15:53:31;24.42;;;15.65;;
21671;SDS011;10997;52.242;8.168;2023-04-06T15:58:32;25.50;;;15.65;;
21671;SDS011;10997;52.242;8.168;2023-04-06T16:03:33;25.13;;;16.55;;
21671;SDS011;10997;52.242;8.168;2023-04-06T16:08:33;23.60;;;16.58;;
21671;SDS011;10997;52.242;8.168;2023-04-06T16:13:34;26.17;;;16.52;;
21671;SDS011;10997;52.242;8.168;2023-04-06T16:18:35;26.42;;;16.83;;
21671;SDS011;10997;52.242;8.168;2023-04-06T16:23:36;30.30;;;17.20;;
21671;SDS011;10997;52.242;8.168;2023-04-06T16:28:36;24.63;;;16.95;;
21671;SDS011;10997;52.242;8.168;2023-04-06T16:33:37;27.42;;;17.15;;
21671;SDS011;10997;52.242;8.168;2023-04-06T16:38:38;25.42;;;16.90;;
21671;SDS011;10997;52.242;8.168;2023-04-06T16:43:38;27.80;;;17.73;;
21671;SDS011;10997;52.242;8.168;2023-04-06T16:48:39;25.27;;;16.48;;
21671;SDS011;10997;52.242;8.168;2023-04-06T16:53:40;22.05;;;15.05;;
21671;SDS011;10997;52.242;8.168;2023-04-06T16:58:40;24.85;;;16.08;;
21671;SDS011;10997;52.242;8.168;2023-04-06T17:03:41;23.85;;;15.38;;
21671;SDS011;10997;52.242;8.168;2023-04-06T17:08:43;21.35;;;14.45;;
21671;SDS011;10997;52.242;8.168;2023-04-06T17:13:46;23.13;;;15.38;;
21671;SDS011;10997;52.242;8.168;2023-04-06T17:18:48;21.10;;;14.38;;
21671;SDS011;10997;52.242;8.168;2023-04-06T17:23:48;23.67;;;15.05;;
21671;SDS011;10997;52.242;8.168;2023-04-06T17:28:49;23.10;;;14.38;;
21671;SDS011;10997;52.242;8.168;2023-04-06T17:33:50;21.80;;;14.52;;
21671;SDS011;10997;52.242;8.168;2023-04-06T17:38:50;20.63;;;13.98;;
21671;SDS011;10997;52.242;8.168;2023-04-06T17:43:51;19.63;;;13.70;;
21671;SDS011;10997;52.242;8.168;2023-04-06T17:48:51;19.00;;;13.48;;
21671;SDS011;10997;52.242;8.168;2023-04-06T17:53:52;19.20;;;13.70;;
21671;SDS011;10997;52.242;8.168;2023-04-06T17:58:55;17.85;;;13.10;;
21671;SDS011;10997;52.242;8.168;2023-04-06T18:03:56;17.98;;;13.00;;
21671;SDS011;10997;52.242;8.168;2023-04-06T18:08:57;17.23;;;12.68;;
21671;SDS011;10997;52.242;8.168;2023-04-06T18:13:59;16.15;;;11.93;;
21671;SDS011;10997;52.242;8.168;2023-04-06T18:19:00;14.63;;;10.93;;
21671;SDS011;10997;52.242;8.168;2023-04-06T18:24:00;17.05;;;11.25;;
21671;SDS011;10997;52.242;8.168;2023-04-06T18:29:01;16.40;;;11.23;;
21671;SDS011;10997;52.242;8.168;2023-04-06T18:34:02;14.90;;;11.60;;
21671;SDS011;10997;52.242;8.168;2023-04-06T18:39:03;15.10;;;11.20;;
21671;SDS011;10997;52.242;8.168;2023-04-06T18:44:04;15.00;;;11.00;;
21671;SDS011;10997;52.242;8.168;2023-04-06T18:49:05;18.05;;;12.05;;
21671;SDS011;10997;52.242;8.168;2023-04-06T18:54:05;16.58;;;11.65;;
21671;SDS011;10997;52.242;8.168;2023-04-06T18:59:06;21.48;;;13.02;;
21671;SDS011;10997;52.242;8.168;2023-04-06T19:04:08;18.70;;;13.05;;
21671;SDS011;10997;52.242;8.168;2023-04-06T19:09:10;22.65;;;13.48;;
21671;SDS011;10997;52.242;8.168;2023-04-06T19:14:10;21.95;;;14.43;;
21671;SDS011;10997;52.242;8.168;2023-04-06T19:19:11;19.83;;;14.02;;
21671;SDS011;10997;52.242;8.168;2023-04-06T19:24:11;19.23;;;13.68;;
21671;SDS011;10997;52.242;8.168;2023-04-06T19:29:12;18.77;;;13.38;;
21671;SDS011;10997;52.242;8.168;2023-04-06T19:34:13;17.92;;;13.63;;
21671;SDS011;10997;52.242;8.168;2023-04-06T19:39:16;24.52;;;14.70;;
21671;SDS011;10997;52.242;8.168;2023-04-06T19:44:17;18.50;;;12.32;;
21671;SDS011;10997;52.242;8.168;2023-04-06T19:49:18;17.08;;;11.65;;
21671;SDS011;10997;52.242;8.168;2023-04-06T19:54:18;18.40;;;12.05;;
21671;SDS011;10997;52.242;8.168;2023-04-06T19:59:19;19.65;;;12.80;;
21671;SDS011;10997;52.242;8.168;2023-04-06T20:04:20;17.88;;;12.93;;
21671;SDS011;10997;52.242;8.168;2023-04-06T20:09:21;16.33;;;12.07;;
21671;SDS011;10997;52.242;8.168;2023-04-06T20:14:21;21.30;;;14.15;;
21671;SDS011;10997;52.242;8.168;2023-04-06T20:19:22;16.77;;;12.18;;
21671;SDS011;10997;52.242;8.168;2023-04-06T20:24:23;18.38;;;13.23;;
21671;SDS011;10997;52.242;8.168;2023-04-06T20:29:23;18.52;;;13.00;;
21671;SDS011;10997;52.242;8.168;2023-04-06T20:34:24;21.77;;;13.38;;
21671;SDS011;10997;52.242;8.168;2023-04-06T20:39:27;20.10;;;14.05;;
21671;SDS011;10997;52.242;8.168;2023-04-06T20:44:29;21.33;;;15.05;;
21671;SDS011;10997;52.242;8.168;2023-04-06T20:49:30;21.02;;;14.30;;
21671;SDS011;10997;52.242;8.168;2023-04-06T20:54:31;22.35;;;15.45;;
21671;SDS011;10997;52.242;8.168;2023-04-06T20:59:32;23.45;;;15.90;;
21671;SDS011;10997;52.242;8.168;2023-04-06T21:04:33;22.52;;;15.35;;
21671;SDS011;10997;52.242;8.168;2023-04-06T21:09:34;21.75;;;15.50;;
21671;SDS011;10997;52.242;8.168;2023-04-06T21:14:35;22.30;;;15.23;;
21671;SDS011;10997;52.242;8.168;2023-04-06T21:19:36;20.67;;;14.90;;
21671;SDS011;10997;52.242;8.168;2023-04-06T21:24:37;21.17;;;15.05;;
21671;SDS011;10997;52.242;8.168;2023-04-06T21:29:37;21.17;;;15.70;;
21671;SDS011;10997;52.242;8.168;2023-04-06T21:34:41;24.02;;;15.63;;
21671;SDS011;10997;52.242;8.168;2023-04-06T21:39:45;23.40;;;16.73;;
21671;SDS011;10997;52.242;8.168;2023-04-06T21:44:46;20.58;;;15.52;;
21671;SDS011;10997;52.242;8.168;2023-04-06T21:49:46;22.42;;;16.42;;
21671;SDS011;10997;52.242;8.168;2023-04-06T21:54:47;22.75;;;16.30;;
21671;SDS011;10997;52.242;8.168;2023-04-06T21:59:47;21.83;;;15.23;;
21671;SDS011;10997;52.242;8.168;2023-04-06T22:04:48;20.88;;;15.27;;
21671;SDS011;10997;52.242;8.168;2023-04-06T22:09:49;23.98;;;16.77;;
21671;SDS011;10997;52.242;8.168;2023-04-06T22:14:50;24.33;;;16.15;;
21671;SDS011;10997;52.242;8.168;2023-04-06T22:19:51;23.30;;;15.95;;
21671;SDS011;10997;52.242;8.168;2023-04-06T22:24:51;22.10;;;16.55;;
21671;SDS011;10997;52.242;8.168;2023-04-06T22:29:52;22.77;;;15.70;;
21671;SDS011;10997;52.242;8.168;2023-04-06T22:34:53;21.13;;;15.60;;
21671;SDS011;10997;52.242;8.168;2023-04-06T22:39:53;22.00;;;14.95;;
21671;SDS011;10997;52.242;8.168;2023-04-06T22:44:54;21.83;;;15.57;;
21671;SDS011;10997;52.242;8.168;2023-04-06T22:49:55;19.60;;;14.35;;
21671;SDS011;10997;52.242;8.168;2023-04-06T22:54:55;19.58;;;14.27;;
21671;SDS011;10997;52.242;8.168;2023-04-06T22:59:56;21.65;;;13.85;;
21671;SDS011;10997;52.242;8.168;2023-04-06T23:04:56;20.73;;;14.65;;
21671;SDS011;10997;52.242;8.168;2023-04-06T23:09:57;20.00;;;14.65;;
21671;SDS011;10997;52.242;8.168;2023-04-06T23:14:58;20.25;;;15.20;;
21671;SDS011;10997;52.242;8.168;2023-04-06T23:19:59;22.17;;;15.40;;
21671;SDS011;10997;52.242;8.168;2023-04-06T23:24:59;19.27;;;14.60;;
21671;SDS011;10997;52.242;8.168;2023-04-06T23:30:00;21.92;;;15.50;;
21671;SDS011;10997;52.242;8.168;2023-04-06T23:35:00;23.27;;;15.15;;
21671;SDS011;10997;52.242;8.168;2023-04-06T23:40:01;20.77;;;15.70;;
21671;SDS011;10997;52.242;8.168;2023-04-06T23:45:03;21.10;;;15.30;;
21671;SDS011;10997;52.242;8.168;2023-04-06T23:50:04;20.38;;;15.68;;
21671;SDS011;10997;52.242;8.168;2023-04-06T23:55:05;21.42;;;16.40;;
